sensor_id;sensor_type;location;lat;lon;timestamp;pressure;altitude;pressure_sealevel;temperature;humidity
65276;BME280;51875;49.994;14.052;2023-07-28T00:00:24;97489.19;;;17.54;100.00
65276;BME280;51875;49.994;14.052;2023-07-28T00:02:00;97490.16;;;17.53;100.00
65276;BME280;51875;49.994;14.052;2023-07-28T00:03:15;97482.50;;;17.61;100.00
65276;BME280;51875;49.994;14.052;2023-07-28T00:04:31;97485.50;;;17.57;100.00
65276;BME280;51875;49.994;14.052;2023-07-28T00:05:46;97485.09;;;17.50;100.00
65276;BME280;51875;49.994;14.052;2023-07-28T00:07:02;97482.63;;;17.60;100.00
65276;BME280;51875;49.994;14.052;2023-07-28T00:08:18;97491.19;;;17.63;100.00
65276;BME280;51875;49.994;14.052;2023-07-28T00:09:33;97489.69;;;17.59;100.00
65276;BME280;51875;49.994;14.052;2023-07-28T00:10:48;97486.03;;;17.49;100.00
65276;BME280;51875;49.994;14.052;2023-07-28T00:12:04;97491.03;;;17.41;100.00
65276;BME280;51875;49.994;14.052;2023-07-28T00:13:19;97487.00;;;17.48;100.00
65276;BME280;51875;49.994;14.052;2023-07-28T00:14:35;97480.91;;;17.34;100.00
65276;BME280;51875;49.994;14.052;2023-07-28T00:15:50;97483.09;;;17.41;100.00
65276;BME280;51875;49.994;14.052;2023-07-28T00:17:06;97490.94;;;17.29;100.00
65276;BME280;51875;49.994;14.052;2023-07-28T00:18:21;97486.13;;;17.47;100.00
65276;BME280;51875;49.994;14.052;2023-07-28T00:19:37;97488.00;;;17.58;100.00
65276;BME280;51875;49.994;14.052;2023-07-28T00:20:52;97483.97;;;17.65;100.00
65276;BME280;51875;49.994;14.052;2023-07-28T00:22:07;97485.44;;;17.70;100.00
65276;BME280;51875;49.994;14.052;2023-07-28T00:23:23;97483.75;;;17.69;100.00
65276;BME280;51875;49.994;14.052;2023-07-28T00:24:39;97479.97;;;17.60;100.00
65276;BME280;51875;49.994;14.052;2023-07-28T00:25:54;97480.06;;;17.58;100.00
65276;BME280;51875;49.994;14.052;2023-07-28T00:27:10;97474.59;;;17.48;100.00
65276;BME280;51875;49.994;14.052;2023-07-28T00:28:25;97472.69;;;17.50;100.00
65276;BME280;51875;49.994;14.052;2023-07-28T00:29:41;97477.41;;;17.58;100.00
65276;BME280;51875;49.994;14.052;2023-07-28T00:30:56;97481.03;;;17.57;100.00
65276;BME280;51875;49.994;14.052;2023-07-28T00:32:12;97481.44;;;17.27;100.00
65276;BME280;51875;49.994;14.052;2023-07-28T00:33:27;97475.94;;;17.17;100.00
65276;BME280;51875;49.994;14.052;2023-07-28T00:34:43;97474.66;;;17.35;100.00
65276;BME280;51875;49.994;14.052;2023-07-28T00:35:58;97473.09;;;17.20;100.00
65276;BME280;51875;49.994;14.052;2023-07-28T00:37:13;97477.22;;;17.24;100.00
65276;BME280;51875;49.994;14.052;2023-07-28T00:38:29;97475.75;;;17.20;100.00
65276;BME280;51875;49.994;14.052;2023-07-28T00:39:44;97479.03;;;17.11;100.00
65276;BME280;51875;49.994;14.052;2023-07-28T00:40:59;97476.47;;;17.22;100.00
65276;BME280;51875;49.994;14.052;2023-07-28T00:42:15;97476.75;;;17.30;100.00
65276;BME280;51875;49.994;14.052;2023-07-28T00:43:30;97474.25;;;17.29;100.00
65276;BME280;51875;49.994;14.052;2023-07-28T00:44:46;97480.50;;;17.28;100.00
65276;BME280;51875;49.994;14.052;2023-07-28T00:46:01;97468.72;;;17.32;100.00
65276;BME280;51875;49.994;14.052;2023-07-28T00:47:17;97475.47;;;17.36;100.00
65276;BME280;51875;49.994;14.052;2023-07-28T00:48:32;97473.06;;;17.33;100.00
65276;BME280;51875;49.994;14.052;2023-07-28T00:49:48;97467.84;;;17.31;100.00
65276;BME280;51875;49.994;14.052;2023-07-28T00:51:03;97469.59;;;17.32;100.00
65276;BME280;51875;49.994;14.052;2023-07-28T00:52:19;97464.47;;;17.29;100.00
65276;BME280;51875;49.994;14.052;2023-07-28T00:53:34;97458.25;;;17.30;100.00
65276;BME280;51875;49.994;14.052;2023-07-28T00:54:49;97455.25;;;17.35;100.00
65276;BME280;51875;49.994;14.052;2023-07-28T00:56:08;97456.78;;;17.26;100.00
65276;BME280;51875;49.994;14.052;2023-07-28T00:57:27;97452.66;;;17.22;100.00
65276;BME280;51875;49.994;14.052;2023-07-28T00:58:42;97454.03;;;17.28;100.00
65276;BME280;51875;49.994;14.052;2023-07-28T00:59:58;97454.13;;;17.26;100.00
65276;BME280;51875;49.994;14.052;2023-07-28T01:01:13;97453.16;;;17.27;100.00
65276;BME280;51875;49.994;14.052;2023-07-28T01:02:31;97455.34;;;17.46;100.00
65276;BME280;51875;49.994;14.052;2023-07-28T01:03:47;97451.06;;;17.32;100.00
65276;BME280;51875;49.994;14.052;2023-07-28T01:05:02;97450.28;;;17.43;100.00
65276;BME280;51875;49.994;14.052;2023-07-28T01:06:20;97450.59;;;17.39;100.00
65276;BME280;51875;49.994;14.052;2023-07-28T01:09:12;97443.56;;;17.50;100.00
65276;BME280;51875;49.994;14.052;2023-07-28T01:10:32;97444.19;;;17.54;100.00
65276;BME280;51875;49.994;14.052;2023-07-28T01:11:57;97435.06;;;17.58;100.00
65276;BME280;51875;49.994;14.052;2023-07-28T01:13:13;97435.06;;;17.58;100.00
65276;BME280;51875;49.994;14.052;2023-07-28T01:14:28;97442.97;;;17.47;100.00
65276;BME280;51875;49.994;14.052;2023-07-28T01:15:44;97441.56;;;17.54;100.00
65276;BME280;51875;49.994;14.052;2023-07-28T01:16:59;97445.63;;;17.34;100.00
65276;BME280;51875;49.994;14.052;2023-07-28T01:18:15;97440.88;;;17.39;100.00
65276;BME280;51875;49.994;14.052;2023-07-28T01:19:31;97444.13;;;17.43;100.00
65276;BME280;51875;49.994;14.052;2023-07-28T01:20:46;97446.13;;;17.52;100.00
65276;BME280;51875;49.994;14.052;2023-07-28T01:24:55;97438.66;;;17.33;100.00
65276;BME280;51875;49.994;14.052;2023-07-28T01:26:16;97445.41;;;17.37;100.00
65276;BME280;51875;49.994;14.052;2023-07-28T01:27:31;97438.75;;;17.44;100.00
65276;BME280;51875;49.994;14.052;2023-07-28T01:28:47;97438.28;;;17.50;100.00
65276;BME280;51875;49.994;14.052;2023-07-28T01:30:03;97439.13;;;17.51;100.00
65276;BME280;51875;49.994;14.052;2023-07-28T01:31:19;97436.56;;;17.62;100.00
65276;BME280;51875;49.994;14.052;2023-07-28T01:32:35;97433.69;;;17.65;100.00
65276;BME280;51875;49.994;14.052;2023-07-28T01:33:50;97429.59;;;17.61;100.00
65276;BME280;51875;49.994;14.052;2023-07-28T01:35:06;97435.91;;;17.34;100.00
65276;BME280;51875;49.994;14.052;2023-07-28T01:36:21;97427.53;;;17.41;100.00
65276;BME280;51875;49.994;14.052;2023-07-28T01:37:37;97426.91;;;17.37;100.00
65276;BME280;51875;49.994;14.052;2023-07-28T01:38:52;97428.38;;;17.41;100.00
65276;BME280;51875;49.994;14.052;2023-07-28T01:40:09;97427.53;;;17.41;100.00
65276;BME280;51875;49.994;14.052;2023-07-28T01:41:24;97427.84;;;17.36;100.00
65276;BME280;51875;49.994;14.052;2023-07-28T01:42:40;97429.50;;;17.50;100.00
65276;BME280;51875;49.994;14.052;2023-07-28T01:43:55;97430.91;;;17.43;100.00
65276;BME280;51875;49.994;14.052;2023-07-28T01:45:11;97428.47;;;17.40;100.00
65276;BME280;51875;49.994;14.052;2023-07-28T01:46:26;97432.59;;;17.44;100.00
65276;BME280;51875;49.994;14.052;2023-07-28T01:47:41;97438.75;;;17.44;100.00
65276;BME280;51875;49.994;14.052;2023-07-28T01:48:57;97440.66;;;17.42;100.00
65276;BME280;51875;49.994;14.052;2023-07-28T01:50:12;97433.88;;;17.38;100.00
65276;BME280;51875;49.994;14.052;2023-07-28T01:51:28;97433.84;;;17.51;100.00
65276;BME280;51875;49.994;14.052;2023-07-28T01:52:43;97430.16;;;17.41;100.00
65276;BME280;51875;49.994;14.052;2023-07-28T01:53:59;97439.13;;;17.51;100.00
65276;BME280;51875;49.994;14.052;2023-07-28T01:55:14;97435.84;;;17.60;100.00
65276;BME280;51875;49.994;14.052;2023-07-28T01:56:30;97428.56;;;17.51;100.00
65276;BME280;51875;49.994;14.052;2023-07-28T01:57:54;97427.69;;;17.50;100.00
65276;BME280;51875;49.994;14.052;2023-07-28T01:59:09;97430.25;;;17.52;100.00
65276;BME280;51875;49.994;14.052;2023-07-28T02:00:25;97434.13;;;17.59;100.00
65276;BME280;51875;49.994;14.052;2023-07-28T02:01:41;97431.69;;;17.56;100.00
65276;BME280;51875;49.994;14.052;2023-07-28T02:02:56;97424.06;;;17.64;100.00
65276;BME280;51875;49.994;14.052;2023-07-28T02:04:13;97425.13;;;17.62;100.00
65276;BME280;51875;49.994;14.052;2023-07-28T02:05:29;97427.09;;;17.71;100.00
65276;BME280;51875;49.994;14.052;2023-07-28T02:06:45;97426.06;;;17.61;100.00
65276;BME280;51875;49.994;14.052;2023-07-28T02:08:00;97424.78;;;17.67;100.00
65276;BME280;51875;49.994;14.052;2023-07-28T02:09:16;97421.56;;;17.74;100.00
65276;BME280;51875;49.994;14.052;2023-07-28T02:10:32;97423.34;;;17.74;100.00
65276;BME280;51875;49.994;14.052;2023-07-28T02:11:47;97426.00;;;17.74;100.00
65276;BME280;51875;49.994;14.052;2023-07-28T02:13:03;97420.22;;;17.69;100.00
65276;BME280;51875;49.994;14.052;2023-07-28T02:14:18;97422.28;;;17.76;100.00
65276;BME280;51875;49.994;14.052;2023-07-28T02:15:33;97425.72;;;17.90;100.00
65276;BME280;51875;49.994;14.052;2023-07-28T02:16:49;97422.00;;;17.92;100.00
65276;BME280;51875;49.994;14.052;2023-07-28T02:18:05;97420.91;;;17.84;100.00
65276;BME280;51875;49.994;14.052;2023-07-28T02:19:20;97425.28;;;17.72;100.00
65276;BME280;51875;49.994;14.052;2023-07-28T02:20:35;97422.38;;;17.63;100.00
65276;BME280;51875;49.994;14.052;2023-07-28T02:21:54;97417.25;;;17.49;100.00
65276;BME280;51875;49.994;14.052;2023-07-28T02:23:09;97415.66;;;17.46;100.00
65276;BME280;51875;49.994;14.052;2023-07-28T02:24:24;97414.44;;;17.39;100.00
65276;BME280;51875;49.994;14.052;2023-07-28T02:25:40;97415.81;;;17.56;100.00
65276;BME280;51875;49.994;14.052;2023-07-28T02:26:55;97416.59;;;17.70;100.00
65276;BME280;51875;49.994;14.052;2023-07-28T02:28:11;97419.66;;;17.52;100.00
65276;BME280;51875;49.994;14.052;2023-07-28T02:29:27;97423.25;;;17.51;100.00
65276;BME280;51875;49.994;14.052;2023-07-28T02:30:42;97421.75;;;17.60;100.00
65276;BME280;51875;49.994;14.052;2023-07-28T02:31:58;97416.56;;;17.58;100.00
65276;BME280;51875;49.994;14.052;2023-07-28T02:33:13;97412.78;;;17.74;100.00
65276;BME280;51875;49.994;14.052;2023-07-28T02:34:28;97417.50;;;17.57;100.00
65276;BME280;51875;49.994;14.052;2023-07-28T02:35:44;97419.59;;;17.41;100.00
65276;BME280;51875;49.994;14.052;2023-07-28T02:36:59;97413.63;;;17.50;100.00
65276;BME280;51875;49.994;14.052;2023-07-28T02:38:15;97416.94;;;17.41;100.00
65276;BME280;51875;49.994;14.052;2023-07-28T02:39:30;97415.94;;;17.55;100.00
65276;BME280;51875;49.994;14.052;2023-07-28T02:40:45;97421.75;;;17.60;100.00
65276;BME280;51875;49.994;14.052;2023-07-28T02:42:01;97423.75;;;17.56;100.00
65276;BME280;51875;49.994;14.052;2023-07-28T02:43:16;97415.56;;;17.48;100.00
65276;BME280;51875;49.994;14.052;2023-07-28T02:44:32;97415.09;;;17.54;100.00
65276;BME280;51875;49.994;14.052;2023-07-28T02:45:54;97424.66;;;17.44;100.00
65276;BME280;51875;49.994;14.052;2023-07-28T02:47:10;97418.41;;;17.45;100.00
65276;BME280;51875;49.994;14.052;2023-07-28T02:48:25;97424.16;;;17.39;100.00
65276;BME280;51875;49.994;14.052;2023-07-28T02:49:41;97424.78;;;17.67;100.00
65276;BME280;51875;49.994;14.052;2023-07-28T02:50:57;97423.81;;;17.68;100.00
65276;BME280;51875;49.994;14.052;2023-07-28T02:52:13;97427.50;;;17.78;100.00
65276;BME280;51875;49.994;14.052;2023-07-28T02:53:28;97427.09;;;17.47;100.00
65276;BME280;51875;49.994;14.052;2023-07-28T02:54:44;97421.69;;;17.48;100.00
65276;BME280;51875;49.994;14.052;2023-07-28T02:55:59;97424.56;;;17.45;100.00
65276;BME280;51875;49.994;14.052;2023-07-28T02:57:15;97427.25;;;17.57;100.00
65276;BME280;51875;49.994;14.052;2023-07-28T02:58:30;97421.63;;;17.61;100.00
65276;BME280;51875;49.994;14.052;2023-07-28T02:59:45;97421.06;;;17.69;100.00
65276;BME280;51875;49.994;14.052;2023-07-28T03:01:03;97425.63;;;17.67;100.00
65276;BME280;51875;49.994;14.052;2023-07-28T03:02:18;97431.88;;;17.66;100.00
65276;BME280;51875;49.994;14.052;2023-07-28T03:03:34;97430.91;;;17.43;100.00
65276;BME280;51875;49.994;14.052;2023-07-28T03:04:49;97428.81;;;17.59;100.00
65276;BME280;51875;49.994;14.052;2023-07-28T03:06:05;97432.09;;;17.39;100.00
65276;BME280;51875;49.994;14.052;2023-07-28T03:07:20;97431.19;;;17.27;100.00
65276;BME280;51875;49.994;14.052;2023-07-28T03:08:35;97429.22;;;17.42;100.00
65276;BME280;51875;49.994;14.052;2023-07-28T03:09:51;97426.56;;;17.42;100.00
65276;BME280;51875;49.994;14.052;2023-07-28T03:11:06;97429.50;;;17.26;100.00
65276;BME280;51875;49.994;14.052;2023-07-28T03:12:22;97426.47;;;17.43;100.00
65276;BME280;51875;49.994;14.052;2023-07-28T03:13:37;97432.16;;;17.50;100.00
65276;BME280;51875;49.994;14.052;2023-07-28T03:14:53;97427.19;;;17.70;100.00
65276;BME280;51875;49.994;14.052;2023-07-28T03:16:08;97425.75;;;17.65;100.00
65276;BME280;51875;49.994;14.052;2023-07-28T03:17:24;97429.84;;;17.70;100.00
65276;BME280;51875;49.994;14.052;2023-07-28T03:18:40;97431.44;;;17.72;100.00
65276;BME280;51875;49.994;14.052;2023-07-28T03:19:55;97428.13;;;17.82;100.00
65276;BME280;51875;49.994;14.052;2023-07-28T03:21:11;97429.19;;;17.79;100.00
65276;BME280;51875;49.994;14.052;2023-07-28T03:22:26;97432.66;;;17.79;100.00
65276;BME280;51875;49.994;14.052;2023-07-28T03:23:41;97436.81;;;17.71;100.00
65276;BME280;51875;49.994;14.052;2023-07-28T03:24:57;97438.75;;;17.69;100.00
65276;BME280;51875;49.994;14.052;2023-07-28T03:26:12;97431.75;;;17.68;100.00
65276;BME280;51875;49.994;14.052;2023-07-28T03:27:27;97434.72;;;17.39;100.00
65276;BME280;51875;49.994;14.052;2023-07-28T03:28:43;97433.31;;;17.46;100.00
65276;BME280;51875;49.994;14.052;2023-07-28T03:29:59;97432.88;;;17.52;100.00
65276;BME280;51875;49.994;14.052;2023-07-28T03:31:14;97429.59;;;17.61;100.00
65276;BME280;51875;49.994;14.052;2023-07-28T03:32:30;97424.84;;;17.78;100.00
65276;BME280;51875;49.994;14.052;2023-07-28T03:33:45;97434.13;;;17.59;100.00
65276;BME280;51875;49.994;14.052;2023-07-28T03:35:01;97432.81;;;17.41;100.00
65276;BME280;51875;49.994;14.052;2023-07-28T03:36:16;97432.66;;;17.55;100.00
65276;BME280;51875;49.994;14.052;2023-07-28T03:37:32;97425.91;;;17.51;100.00
65276;BME280;51875;49.994;14.052;2023-07-28T03:38:47;97424.28;;;17.61;100.00
65276;BME280;51875;49.994;14.052;2023-07-28T03:40:03;97434.34;;;17.56;100.00
65276;BME280;51875;49.994;14.052;2023-07-28T03:41:18;97426.53;;;17.55;100.00
65276;BME280;51875;49.994;14.052;2023-07-28T03:42:34;97436.91;;;17.45;100.00
65276;BME280;51875;49.994;14.052;2023-07-28T03:43:49;97438.34;;;17.38;100.00
65276;BME280;51875;49.994;14.052;2023-07-28T03:45:05;97433.22;;;17.47;100.00
65276;BME280;51875;49.994;14.052;2023-07-28T03:46:20;97433.69;;;17.41;100.00
65276;BME280;51875;49.994;14.052;2023-07-28T03:47:36;97434.72;;;17.39;100.00
65276;BME280;51875;49.994;14.052;2023-07-28T03:48:52;97430.66;;;17.46;100.00
65276;BME280;51875;49.994;14.052;2023-07-28T03:50:07;97435.06;;;17.58;100.00
65276;BME280;51875;49.994;14.052;2023-07-28T03:51:23;97437.06;;;17.43;100.00
65276;BME280;51875;49.994;14.052;2023-07-28T03:52:38;97440.47;;;17.32;100.00
65276;BME280;51875;49.994;14.052;2023-07-28T03:53:54;97435.91;;;17.34;100.00
65276;BME280;51875;49.994;14.052;2023-07-28T03:55:09;97438.97;;;17.41;100.00
65276;BME280;51875;49.994;14.052;2023-07-28T03:56:24;97430.72;;;17.33;100.00
65276;BME280;51875;49.994;14.052;2023-07-28T03:57:40;97438.16;;;17.28;100.00
65276;BME280;51875;49.994;14.052;2023-07-28T03:58:55;97436.34;;;17.28;100.00
65276;BME280;51875;49.994;14.052;2023-07-28T04:00:11;97432.88;;;17.28;100.00
65276;BME280;51875;49.994;14.052;2023-07-28T04:01:26;97436.03;;;17.33;100.00
65276;BME280;51875;49.994;14.052;2023-07-28T04:02:42;97434.56;;;17.53;100.00
65276;BME280;51875;49.994;14.052;2023-07-28T04:03:58;97444.09;;;17.56;100.00
65276;BME280;51875;49.994;14.052;2023-07-28T04:05:13;97440.03;;;17.39;100.00
65276;BME280;51875;49.994;14.052;2023-07-28T04:06:41;97436.25;;;17.30;100.00
65276;BME280;51875;49.994;14.052;2023-07-28T04:07:57;97439.00;;;17.28;100.00
65276;BME280;51875;49.994;14.052;2023-07-28T04:09:13;97434.47;;;17.17;100.00
65276;BME280;51875;49.994;14.052;2023-07-28T04:10:29;97442.59;;;17.27;100.00
65276;BME280;51875;49.994;14.052;2023-07-28T04:11:44;97445.69;;;17.21;100.00
65276;BME280;51875;49.994;14.052;2023-07-28T04:13:00;97443.59;;;17.13;100.00
65276;BME280;51875;49.994;14.052;2023-07-28T04:14:15;97451.41;;;17.15;100.00
65276;BME280;51875;49.994;14.052;2023-07-28T04:15:31;97455.75;;;17.03;100.00
65276;BME280;51875;49.994;14.052;2023-07-28T04:16:46;97451.22;;;17.05;100.00
65276;BME280;51875;49.994;14.052;2023-07-28T04:18:01;97461.97;;;17.15;100.00
65276;BME280;51875;49.994;14.052;2023-07-28T04:19:17;97454.78;;;17.17;100.00
65276;BME280;51875;49.994;14.052;2023-07-28T04:20:32;97461.47;;;17.10;100.00
65276;BME280;51875;49.994;14.052;2023-07-28T04:21:48;97451.16;;;17.18;100.00
65276;BME280;51875;49.994;14.052;2023-07-28T04:23:03;97455.31;;;17.22;100.00
65276;BME280;51875;49.994;14.052;2023-07-28T04:24:18;97455.31;;;17.22;100.00
65276;BME280;51875;49.994;14.052;2023-07-28T04:25:34;97455.53;;;17.19;100.00
65276;BME280;51875;49.994;14.052;2023-07-28T04:26:49;97454.44;;;17.21;100.00
65276;BME280;51875;49.994;14.052;2023-07-28T04:28:05;97457.88;;;17.11;100.00
65276;BME280;51875;49.994;14.052;2023-07-28T04:29:20;97464.22;;;16.95;100.00
65276;BME280;51875;49.994;14.052;2023-07-28T04:30:35;97461.97;;;17.15;100.00
65276;BME280;51875;49.994;14.052;2023-07-28T04:31:51;97467.50;;;17.12;100.00
65276;BME280;51875;49.994;14.052;2023-07-28T04:33:06;97464.63;;;17.28;100.00
65276;BME280;51875;49.994;14.052;2023-07-28T04:34:22;97465.56;;;17.14;100.00
65276;BME280;51875;49.994;14.052;2023-07-28T04:35:37;97457.28;;;17.31;100.00
65276;BME280;51875;49.994;14.052;2023-07-28T04:36:52;97466.72;;;17.22;100.00
65276;BME280;51875;49.994;14.052;2023-07-28T04:38:08;97468.16;;;17.40;100.00
65276;BME280;51875;49.994;14.052;2023-07-28T04:39:23;97464.41;;;17.55;100.00
65276;BME280;51875;49.994;14.052;2023-07-28T04:40:39;97459.66;;;17.60;100.00
65276;BME280;51875;49.994;14.052;2023-07-28T04:41:54;97459.84;;;17.57;100.00
65276;BME280;51875;49.994;14.052;2023-07-28T04:43:10;97466.03;;;17.45;100.00
65276;BME280;51875;49.994;14.052;2023-07-28T04:44:25;97465.59;;;17.51;100.00
65276;BME280;51875;49.994;14.052;2023-07-28T04:45:41;97459.41;;;17.39;100.00
65276;BME280;51875;49.994;14.052;2023-07-28T04:46:56;97464.19;;;17.58;100.00
65276;BME280;51875;49.994;14.052;2023-07-28T04:48:11;97459.13;;;17.55;100.00
65276;BME280;51875;49.994;14.052;2023-07-28T04:49:27;97457.75;;;17.62;100.00
65276;BME280;51875;49.994;14.052;2023-07-28T04:50:43;97451.16;;;17.68;100.00
65276;BME280;51875;49.994;14.052;2023-07-28T04:51:59;97453.09;;;17.53;100.00
65276;BME280;51875;49.994;14.052;2023-07-28T04:53:15;97454.00;;;17.65;100.00
65276;BME280;51875;49.994;14.052;2023-07-28T04:54:30;97460.66;;;17.71;100.00
65276;BME280;51875;49.994;14.052;2023-07-28T04:55:45;97450.53;;;17.64;100.00
65276;BME280;51875;49.994;14.052;2023-07-28T04:57:01;97457.50;;;17.65;100.00
65276;BME280;51875;49.994;14.052;2023-07-28T04:58:16;97453.66;;;17.70;100.00
65276;BME280;51875;49.994;14.052;2023-07-28T04:59:31;97447.72;;;17.79;100.00
65276;BME280;51875;49.994;14.052;2023-07-28T05:00:47;97450.91;;;17.71;100.00
65276;BME280;51875;49.994;14.052;2023-07-28T05:02:02;97447.88;;;17.64;100.00
65276;BME280;51875;49.994;14.052;2023-07-28T05:03:18;97458.00;;;17.71;100.00
65276;BME280;51875;49.994;14.052;2023-07-28T05:04:33;97449.81;;;17.74;100.00
65276;BME280;51875;49.994;14.052;2023-07-28T05:05:49;97452.88;;;17.81;100.00
65276;BME280;51875;49.994;14.052;2023-07-28T05:07:05;97446.28;;;17.86;100.00
65276;BME280;51875;49.994;14.052;2023-07-28T05:08:20;97456.94;;;17.98;100.00
65276;BME280;51875;49.994;14.052;2023-07-28T05:09:36;97447.13;;;18.11;100.00
65276;BME280;51875;49.994;14.052;2023-07-28T05:10:52;97456.53;;;18.04;100.00
65276;BME280;51875;49.994;14.052;2023-07-28T05:12:07;97456.28;;;18.07;100.00
65276;BME280;51875;49.994;14.052;2023-07-28T05:13:24;97453.78;;;17.92;100.00
65276;BME280;51875;49.994;14.052;2023-07-28T05:14:39;97451.00;;;17.94;100.00
65276;BME280;51875;49.994;14.052;2023-07-28T05:15:55;97454.47;;;17.83;100.00
65276;BME280;51875;49.994;14.052;2023-07-28T05:17:10;97451.41;;;18.01;100.00
65276;BME280;51875;49.994;14.052;2023-07-28T05:18:26;97453.41;;;17.86;100.00
65276;BME280;51875;49.994;14.052;2023-07-28T05:19:41;97446.34;;;17.98;100.00
65276;BME280;51875;49.994;14.052;2023-07-28T05:20:56;97442.72;;;17.99;100.00
65276;BME280;51875;49.994;14.052;2023-07-28T05:22:12;97451.13;;;18.17;100.00
65276;BME280;51875;49.994;14.052;2023-07-28T05:23:27;97443.53;;;18.12;100.00
65276;BME280;51875;49.994;14.052;2023-07-28T05:24:43;97442.84;;;17.73;100.00
65276;BME280;51875;49.994;14.052;2023-07-28T05:26:04;97449.72;;;18.00;100.00
65276;BME280;51875;49.994;14.052;2023-07-28T05:27:20;97450.41;;;17.90;100.00
65276;BME280;51875;49.994;14.052;2023-07-28T05:28:35;97447.47;;;17.82;100.00
65276;BME280;51875;49.994;14.052;2023-07-28T05:29:51;97448.50;;;17.92;100.00
65276;BME280;51875;49.994;14.052;2023-07-28T05:31:06;97449.56;;;17.90;100.00
65276;BME280;51875;49.994;14.052;2023-07-28T05:32:22;97447.78;;;18.02;100.00
65276;BME280;51875;49.994;14.052;2023-07-28T05:33:38;97450.91;;;17.96;100.00
65276;BME280;51875;49.994;14.052;2023-07-28T05:34:54;97447.53;;;18.18;100.00
65276;BME280;51875;49.994;14.052;2023-07-28T05:36:09;97453.97;;;18.02;100.00
65276;BME280;51875;49.994;14.052;2023-07-28T05:37:25;97456.78;;;18.12;100.00
65276;BME280;51875;49.994;14.052;2023-07-28T05:38:40;97460.31;;;18.24;100.00
65276;BME280;51875;49.994;14.052;2023-07-28T05:39:56;97462.59;;;18.29;100.00
65276;BME280;51875;49.994;14.052;2023-07-28T05:41:11;97458.81;;;18.44;100.00
65276;BME280;51875;49.994;14.052;2023-07-28T05:42:26;97449.41;;;18.52;100.00
65276;BME280;51875;49.994;14.052;2023-07-28T05:43:42;97454.25;;;18.58;100.00
65276;BME280;51875;49.994;14.052;2023-07-28T05:44:58;97451.97;;;18.53;100.00
65276;BME280;51875;49.994;14.052;2023-07-28T05:46:14;97457.63;;;18.60;100.00
65276;BME280;51875;49.994;14.052;2023-07-28T05:47:29;97462.22;;;18.69;100.00
65276;BME280;51875;49.994;14.052;2023-07-28T05:48:44;97462.94;;;18.60;100.00
65276;BME280;51875;49.994;14.052;2023-07-28T05:50:00;97463.31;;;18.67;100.00
65276;BME280;51875;49.994;14.052;2023-07-28T05:51:16;97459.81;;;18.66;100.00
65276;BME280;51875;49.994;14.052;2023-07-28T05:52:31;97463.28;;;18.55;100.00
65276;BME280;51875;49.994;14.052;2023-07-28T05:53:46;97459.94;;;18.76;100.00
65276;BME280;51875;49.994;14.052;2023-07-28T05:55:02;97461.63;;;18.88;100.00
65276;BME280;51875;49.994;14.052;2023-07-28T05:56:18;97470.91;;;18.94;100.00
65276;BME280;51875;49.994;14.052;2023-07-28T05:57:34;97468.88;;;18.98;100.00
65276;BME280;51875;49.994;14.052;2023-07-28T05:58:49;97468.03;;;18.86;100.00
65276;BME280;51875;49.994;14.052;2023-07-28T06:00:05;97465.00;;;18.90;100.00
65276;BME280;51875;49.994;14.052;2023-07-28T06:01:24;97471.78;;;19.06;100.00
65276;BME280;51875;49.994;14.052;2023-07-28T06:02:42;97467.66;;;18.90;100.00
65276;BME280;51875;49.994;14.052;2023-07-28T06:03:58;97465.13;;;18.89;100.00
65276;BME280;51875;49.994;14.052;2023-07-28T06:05:14;97478.97;;;18.92;100.00
65276;BME280;51875;49.994;14.052;2023-07-28T06:06:29;97478.53;;;18.99;100.00
65276;BME280;51875;49.994;14.052;2023-07-28T06:07:45;97481.47;;;19.07;100.00
65276;BME280;51875;49.994;14.052;2023-07-28T06:09:00;97476.88;;;19.09;100.00
65276;BME280;51875;49.994;14.052;2023-07-28T06:10:15;97478.84;;;18.83;100.00
65276;BME280;51875;49.994;14.052;2023-07-28T06:11:31;97478.50;;;18.76;100.00
65276;BME280;51875;49.994;14.052;2023-07-28T06:12:46;97483.50;;;19.03;100.00
65276;BME280;51875;49.994;14.052;2023-07-28T06:14:02;97478.97;;;18.92;100.00
65276;BME280;51875;49.994;14.052;2023-07-28T06:15:17;97480.59;;;19.07;100.00
65276;BME280;51875;49.994;14.052;2023-07-28T06:16:33;97483.38;;;19.05;100.00
65276;BME280;51875;49.994;14.052;2023-07-28T06:17:48;97473.84;;;19.25;100.00
65276;BME280;51875;49.994;14.052;2023-07-28T06:19:04;97484.22;;;19.17;100.00
65276;BME280;51875;49.994;14.052;2023-07-28T06:20:23;97483.50;;;19.03;100.00
65276;BME280;51875;49.994;14.052;2023-07-28T06:21:39;97478.31;;;19.25;100.00
65276;BME280;51875;49.994;14.052;2023-07-28T06:22:55;97481.53;;;19.40;100.00
65276;BME280;51875;49.994;14.052;2023-07-28T06:24:10;97482.03;;;19.33;100.00
65276;BME280;51875;49.994;14.052;2023-07-28T06:25:25;97489.41;;;19.41;100.00
65276;BME280;51875;49.994;14.052;2023-07-28T06:26:41;97483.72;;;19.46;100.00
65276;BME280;51875;49.994;14.052;2023-07-28T06:27:56;97487.81;;;19.50;100.00
65276;BME280;51875;49.994;14.052;2023-07-28T06:29:12;97493.97;;;19.39;100.00
65276;BME280;51875;49.994;14.052;2023-07-28T06:30:27;97497.00;;;19.46;100.00
65276;BME280;51875;49.994;14.052;2023-07-28T06:31:43;97483.22;;;19.41;100.00
65276;BME280;51875;49.994;14.052;2023-07-28T06:32:58;97487.59;;;19.42;100.00
65276;BME280;51875;49.994;14.052;2023-07-28T06:34:13;97497.59;;;19.38;100.00
65276;BME280;51875;49.994;14.052;2023-07-28T06:35:29;97478.06;;;19.16;100.00